Time;durP1;ratioP1;P1;durP2;ratioP2;P2;SDS_P1;SDS_P2;PMS_P1;PMS_P2;Temp;Humidity;BMP_temperature;BMP_pressure;BME280_temperature;BME280_humidity;BME280_pressure;Samples;Min_cycle;Max_cycle;Signal;HPM_P1;HPM_P2
2021/10/06 00:00:59;;;;;;;10.27;6.75;;;13.10;66.70;;;;;;5055919;28;20290;-38
2021/10/06 00:03:25;;;;;;;12.70;6.88;;;13.00;66.80;;;;;;5056285;28;20299;-36
2021/10/06 00:05:50;;;;;;;11.20;7.00;;;13.00;66.90;;;;;;5055658;28;20021;-36
2021/10/06 00:08:16;;;;;;;10.60;6.70;;;13.00;67.20;;;;;;5056180;28;20033;-38
2021/10/06 00:10:41;;;;;;;11.05;7.03;;;12.90;67.30;;;;;;5055365;28;20033;-39
2021/10/06 00:13:07;;;;;;;10.65;6.80;;;12.90;67.40;;;;;;5055788;28;20087;-39
2021/10/06 00:15:33;;;;;;;15.07;7.05;;;12.90;67.50;;;;;;5055620;28;20028;-40
2021/10/06 00:17:59;;;;;;;13.80;7.07;;;12.90;67.40;;;;;;5054148;28;20037;-36
2021/10/06 00:20:25;;;;;;;10.07;7.07;;;12.80;67.40;;;;;;5055618;28;20135;-40
2021/10/06 00:22:51;;;;;;;10.35;6.30;;;12.80;67.50;;;;;;5055707;28;20048;-36
2021/10/06 00:25:16;;;;;;;11.38;6.30;;;12.80;67.60;;;;;;5055424;28;20098;-35
2021/10/06 00:27:42;;;;;;;12.18;6.90;;;12.80;67.70;;;;;;5055588;28;20021;-37
2021/10/06 00:30:08;;;;;;;10.90;6.80;;;12.70;67.70;;;;;;5055693;28;20043;-35
2021/10/06 00:32:34;;;;;;;15.80;7.38;;;12.70;67.80;;;;;;5055504;28;20368;-35
2021/10/06 00:35:00;;;;;;;9.38;6.18;;;12.70;67.80;;;;;;5056013;28;20029;-35
2021/10/06 00:37:25;;;;;;;9.82;6.38;;;12.70;67.80;;;;;;5055278;28;20036;-37
2021/10/06 00:39:51;;;;;;;9.13;6.25;;;12.70;67.80;;;;;;5054227;28;20094;-39
2021/10/06 00:42:17;;;;;;;10.68;6.28;;;12.60;67.90;;;;;;5054250;28;20036;-40
2021/10/06 00:44:42;;;;;;;10.95;6.05;;;12.60;68.00;;;;;;5055548;28;20028;-35
2021/10/06 00:47:12;;;;;;;12.25;7.53;;;12.60;68.20;;;;;;5055313;28;20033;-39
2021/10/06 00:49:39;;;;;;;10.80;6.10;;;12.60;68.50;;;;;;5055167;28;20029;-36
2021/10/06 00:52:05;;;;;;;15.45;6.80;;;12.50;68.50;;;;;;5055350;28;20118;-38
2021/10/06 00:54:31;;;;;;;10.02;6.30;;;12.50;68.80;;;;;;5055219;28;20080;-38
2021/10/06 00:56:57;;;;;;;11.55;6.88;;;12.50;68.90;;;;;;5054853;28;20091;-38
2021/10/06 00:59:22;;;;;;;12.50;6.47;;;12.50;69.20;;;;;;5055195;28;20025;-39
2021/10/06 01:01:48;;;;;;;8.48;6.07;;;12.50;69.30;;;;;;5055362;28;20111;-36
2021/10/06 01:04:13;;;;;;;11.27;6.13;;;12.50;69.40;;;;;;5055016;28;20040;-38
2021/10/06 01:06:40;;;;;;;10.20;6.85;;;12.50;69.30;;;;;;5055257;28;20098;-36
2021/10/06 01:09:06;;;;;;;10.68;7.32;;;12.50;69.30;;;;;;5055533;28;20037;-38
2021/10/06 01:11:32;;;;;;;9.30;6.35;;;12.50;69.40;;;;;;5055166;28;20025;-38
2021/10/06 01:13:57;;;;;;;11.38;6.03;;;12.50;69.40;;;;;;5055395;28;20455;-38
2021/10/06 01:16:24;;;;;;;10.32;6.78;;;12.40;69.40;;;;;;5055059;28;20317;-35
2021/10/06 01:18:50;;;;;;;13.68;6.55;;;12.40;69.30;;;;;;5055616;28;20128;-40
2021/10/06 01:21:17;;;;;;;10.88;6.82;;;12.40;69.30;;;;;;5055037;28;20080;-37
2021/10/06 01:23:44;;;;;;;17.05;6.65;;;12.40;69.40;;;;;;5055285;28;20078;-35
2021/10/06 01:26:11;;;;;;;9.90;6.70;;;12.40;69.40;;;;;;5054978;28;20035;-38
2021/10/06 01:28:37;;;;;;;11.60;6.78;;;12.30;69.40;;;;;;5055424;28;20029;-35
2021/10/06 01:31:03;;;;;;;10.70;6.60;;;12.40;69.40;;;;;;5054489;28;20043;-38
2021/10/06 01:33:29;;;;;;;12.70;6.70;;;12.30;69.40;;;;;;5055377;28;20033;-38
2021/10/06 01:35:55;;;;;;;8.88;6.50;;;12.30;69.40;;;;;;5036642;28;20029;-35
2021/10/06 01:38:21;;;;;;;11.32;6.97;;;12.30;69.30;;;;;;5055199;28;20423;-38
2021/10/06 01:40:46;;;;;;;12.00;6.65;;;12.30;69.40;;;;;;5054846;28;20036;-36
2021/10/06 01:43:12;;;;;;;11.13;7.63;;;12.20;69.40;;;;;;5054607;28;20168;-35
2021/10/06 01:45:41;;;;;;;9.38;6.78;;;12.20;69.50;;;;;;5054715;28;20041;-38
2021/10/06 01:48:09;;;;;;;8.82;6.60;;;12.10;69.70;;;;;;5055024;28;20025;-37
2021/10/06 01:50:36;;;;;;;12.55;6.88;;;12.10;69.70;;;;;;5055960;28;20376;-36
2021/10/06 01:53:02;;;;;;;9.52;7.07;;;12.10;69.90;;;;;;5058510;28;20034;-35
2021/10/06 01:55:30;;;;;;;11.63;6.80;;;12.10;70.00;;;;;;5058082;28;20033;-37
2021/10/06 01:57:57;;;;;;;11.32;6.75;;;12.10;70.10;;;;;;5057959;28;20073;-36
2021/10/06 02:00:23;;;;;;;11.35;6.60;;;12.00;70.20;;;;;;5058197;28;20029;-36
2021/10/06 02:02:49;;;;;;;10.45;6.45;;;12.00;70.30;;;;;;5058332;28;20036;-36
2021/10/06 02:05:15;;;;;;;8.48;6.32;;;12.00;70.30;;;;;;5058218;28;20178;-35
2021/10/06 02:07:40;;;;;;;13.55;7.05;;;12.00;70.40;;;;;;5057972;28;20033;-38
2021/10/06 02:10:07;;;;;;;13.38;6.40;;;12.00;70.60;;;;;;5058574;28;20306;-39
2021/10/06 02:12:33;;;;;;;13.88;6.85;;;12.00;70.60;;;;;;5057828;28;20044;-36
2021/10/06 02:14:59;;;;;;;10.93;6.97;;;12.00;70.70;;;;;;5057829;28;20033;-39
2021/10/06 02:17:24;;;;;;;13.63;6.85;;;11.90;70.70;;;;;;5057942;28;20029;-39
2021/10/06 02:19:50;;;;;;;11.93;7.00;;;12.00;70.90;;;;;;5057885;28;20356;-35
2021/10/06 02:22:16;;;;;;;11.25;6.78;;;12.00;71.00;;;;;;5057642;28;20033;-39
2021/10/06 02:24:41;;;;;;;12.05;7.45;;;11.90;71.00;;;;;;5058050;28;20021;-36
2021/10/06 02:27:07;;;;;;;13.73;7.57;;;11.90;71.00;;;;;;5057343;28;20029;-38
2021/10/06 02:29:33;;;;;;;9.50;6.70;;;11.90;71.10;;;;;;5057651;28;20028;-38
2021/10/06 02:31:58;;;;;;;12.98;6.93;;;11.90;71.30;;;;;;5057639;28;20040;-36
2021/10/06 02:34:24;;;;;;;10.48;7.03;;;11.80;71.40;;;;;;5057498;28;20033;-36
2021/10/06 02:36:52;;;;;;;12.32;7.75;;;11.90;71.50;;;;;;5057262;28;20029;-35
2021/10/06 02:39:17;;;;;;;13.02;7.72;;;11.90;71.70;;;;;;5056866;28;20025;-38
2021/10/06 02:41:43;;;;;;;11.50;7.72;;;11.80;71.80;;;;;;5057255;28;20025;-35
2021/10/06 02:44:09;;;;;;;10.27;7.30;;;11.90;72.00;;;;;;5057668;28;20064;-38
2021/10/06 02:46:34;;;;;;;12.40;7.32;;;11.80;72.00;;;;;;5057388;28;20117;-36
2021/10/06 02:49:00;;;;;;;10.80;7.10;;;11.80;72.20;;;;;;5057586;28;20041;-38
2021/10/06 02:51:26;;;;;;;10.57;7.32;;;11.80;72.30;;;;;;5057448;28;20036;-36
2021/10/06 02:53:51;;;;;;;12.25;7.78;;;11.80;72.30;;;;;;5057770;28;20206;-38
2021/10/06 02:56:17;;;;;;;11.75;7.13;;;11.80;72.50;;;;;;5056792;28;20349;-35
2021/10/06 02:58:43;;;;;;;10.75;7.75;;;11.80;72.50;;;;;;5056381;28;20035;-35
2021/10/06 03:01:09;;;;;;;9.63;6.53;;;11.80;72.70;;;;;;5056712;28;20025;-38
2021/10/06 03:03:35;;;;;;;10.63;7.45;;;11.80;72.90;;;;;;5056794;28;20036;-36
2021/10/06 03:06:00;;;;;;;10.02;6.90;;;11.80;73.10;;;;;;5056851;28;20024;-36
2021/10/06 03:08:26;;;;;;;9.15;7.15;;;11.80;73.20;;;;;;5057245;28;20039;-36
2021/10/06 03:10:52;;;;;;;9.30;6.80;;;11.80;73.30;;;;;;5056858;28;20024;-39
2021/10/06 03:13:18;;;;;;;10.30;6.68;;;11.80;73.40;;;;;;5057184;28;20037;-38
2021/10/06 03:15:44;;;;;;;10.88;7.03;;;11.80;73.50;;;;;;5056798;28;20036;-39
2021/10/06 03:18:10;;;;;;;12.60;7.60;;;11.80;73.40;;;;;;5055617;28;20037;-39
2021/10/06 03:20:36;;;;;;;10.68;6.68;;;11.80;73.40;;;;;;5055655;28;20418;-36
2021/10/06 03:23:06;;;;;;;9.60;6.63;;;11.80;73.30;;;;;;5056743;28;20043;-38
2021/10/06 03:25:32;;;;;;;11.20;7.22;;;11.80;73.30;;;;;;5055558;28;20074;-36
2021/10/06 03:27:58;;;;;;;8.18;6.18;;;11.80;73.30;;;;;;5056518;28;20409;-36
2021/10/06 03:30:24;;;;;;;10.77;6.47;;;11.80;73.40;;;;;;5056416;28;20028;-38
2021/10/06 03:32:50;;;;;;;9.63;6.90;;;11.80;73.40;;;;;;5056445;28;20044;-40
2021/10/06 03:35:18;;;;;;;8.90;6.38;;;11.90;73.50;;;;;;5056589;28;20082;-36
2021/10/06 03:37:48;;;;;;;9.45;6.30;;;11.90;73.50;;;;;;5056141;28;20033;-35
2021/10/06 03:40:14;;;;;;;10.95;6.85;;;11.90;73.50;;;;;;5056229;28;20029;-35
2021/10/06 03:42:40;;;;;;;10.20;6.80;;;11.90;73.50;;;;;;5056209;28;20124;-39
2021/10/06 03:45:09;;;;;;;9.00;6.78;;;11.90;73.60;;;;;;5056218;28;20375;-36
2021/10/06 03:47:34;;;;;;;14.60;8.07;;;11.90;73.60;;;;;;5056154;28;20040;-35
2021/10/06 03:50:00;;;;;;;11.63;6.72;;;11.90;73.60;;;;;;5055993;28;20029;-36
2021/10/06 03:52:26;;;;;;;12.23;7.13;;;11.90;73.50;;;;;;5056144;28;20040;-36
2021/10/06 03:54:52;;;;;;;10.05;6.78;;;11.90;73.60;;;;;;5054835;28;20356;-36
2021/10/06 03:57:17;;;;;;;10.23;6.55;;;11.90;73.60;;;;;;5055651;28;20052;-38
2021/10/06 03:59:43;;;;;;;11.43;7.60;;;12.00;73.60;;;;;;5056026;28;20032;-38
2021/10/06 04:02:10;;;;;;;12.98;8.35;;;12.00;73.60;;;;;;5055896;28;20029;-38
2021/10/06 04:04:35;;;;;;;20.23;13.00;;;12.00;73.60;;;;;;5055638;28;20036;-36
2021/10/06 04:07:01;;;;;;;26.15;16.45;;;12.00;73.60;;;;;;5055530;28;20029;-39
2021/10/06 04:09:27;;;;;;;10.80;7.97;;;12.00;73.50;;;;;;5055972;28;20095;-36
2021/10/06 04:11:52;;;;;;;24.92;7.95;;;12.00;73.50;;;;;;5055654;28;20114;-38
2021/10/06 04:14:18;;;;;;;23.05;11.23;;;12.00;73.40;;;;;;5055630;28;20024;-38
2021/10/06 04:16:44;;;;;;;18.10;10.60;;;12.00;73.50;;;;;;5055595;28;20028;-37
2021/10/06 04:19:09;;;;;;;12.05;7.70;;;12.00;73.40;;;;;;5055844;28;20120;-38
2021/10/06 04:21:35;;;;;;;11.70;7.93;;;12.10;73.50;;;;;;5055669;28;20028;-42
2021/10/06 04:24:01;;;;;;;10.18;7.25;;;12.10;73.50;;;;;;5055758;28;20076;-37
2021/10/06 04:26:26;;;;;;;11.52;7.38;;;12.10;73.60;;;;;;5055677;28;20319;-37
2021/10/06 04:28:52;;;;;;;12.30;8.27;;;12.10;73.60;;;;;;5055971;28;20423;-38
2021/10/06 04:31:21;;;;;;;12.88;7.63;;;12.10;73.60;;;;;;5055321;28;20313;-37
2021/10/06 04:33:47;;;;;;;11.75;7.35;;;12.10;73.60;;;;;;5055625;28;20056;-36
2021/10/06 04:36:13;;;;;;;16.40;8.57;;;12.10;73.60;;;;;;5055123;28;20082;-39
2021/10/06 04:38:39;;;;;;;13.98;8.82;;;12.10;73.50;;;;;;5055809;28;20409;-35
2021/10/06 04:41:04;;;;;;;14.00;8.57;;;12.10;73.40;;;;;;5055165;28;20432;-38
2021/10/06 04:43:30;;;;;;;12.20;7.10;;;12.10;73.40;;;;;;5054281;28;20040;-34
2021/10/06 04:45:56;;;;;;;14.77;8.15;;;12.20;73.40;;;;;;5055105;28;20421;-34
2021/10/06 04:48:21;;;;;;;9.43;6.78;;;12.20;73.40;;;;;;5055494;28;20108;-38
2021/10/06 04:50:47;;;;;;;11.73;7.47;;;12.20;73.30;;;;;;5055290;28;20301;-40
2021/10/06 04:53:13;;;;;;;10.52;7.40;;;12.20;73.10;;;;;;5055251;28;20098;-39
2021/10/06 04:55:39;;;;;;;11.73;6.88;;;12.20;72.90;;;;;;5054842;28;20044;-39
2021/10/06 04:58:04;;;;;;;14.60;7.47;;;12.30;72.70;;;;;;5055108;28;20194;-37
2021/10/06 05:00:30;;;;;;;15.00;7.93;;;12.30;72.20;;;;;;5054908;28;20052;-38
2021/10/06 05:03:08;;;;;;;14.13;7.05;;;12.30;72.10;;;;;;5054478;28;20418;-35
2021/10/06 05:05:34;;;;;;;13.07;7.07;;;12.30;72.30;;;;;;5055250;28;20053;-35
2021/10/06 05:08:00;;;;;;;12.77;7.45;;;12.30;72.60;;;;;;5054767;28;20029;-36
2021/10/06 05:10:26;;;;;;;17.10;7.88;;;12.30;72.70;;;;;;5054881;28;20438;-36
2021/10/06 05:12:51;;;;;;;14.77;8.32;;;12.40;72.70;;;;;;5055262;28;20060;-38
2021/10/06 05:15:17;;;;;;;13.23;7.07;;;12.40;72.80;;;;;;5054831;28;20413;-36
2021/10/06 05:17:42;;;;;;;9.50;6.75;;;12.40;72.80;;;;;;5054523;28;20033;-36
2021/10/06 05:20:09;;;;;;;15.43;6.97;;;12.50;72.80;;;;;;5054815;28;20107;-39
2021/10/06 05:22:34;;;;;;;10.43;6.65;;;12.50;72.80;;;;;;5054940;28;20444;-37
2021/10/06 05:25:00;;;;;;;14.02;7.95;;;12.50;72.60;;;;;;5052906;28;20192;-36
2021/10/06 05:27:26;;;;;;;18.15;10.38;;;12.50;72.60;;;;;;5048804;28;20033;-39
2021/10/06 05:29:51;;;;;;;18.33;10.82;;;12.50;72.40;;;;;;5038782;28;20022;-40
2021/10/06 05:32:17;;;;;;;16.08;10.07;;;12.50;72.30;;;;;;5038761;28;20549;-36
2021/10/06 05:34:43;;;;;;;13.38;7.45;;;12.60;72.10;;;;;;5038499;28;20111;-37
2021/10/06 05:37:08;;;;;;;19.50;7.32;;;12.60;71.80;;;;;;5038444;28;20108;-38
2021/10/06 05:39:34;;;;;;;17.98;8.55;;;12.60;71.70;;;;;;5038513;28;20037;-38
2021/10/06 05:42:00;;;;;;;16.30;7.95;;;12.60;71.50;;;;;;5038158;28;20037;-35
2021/10/06 05:44:26;;;;;;;12.43;7.00;;;12.60;71.60;;;;;;5038477;28;20104;-35
2021/10/06 05:46:52;;;;;;;12.43;7.88;;;12.60;71.70;;;;;;5038141;28;20125;-35
2021/10/06 05:49:17;;;;;;;15.88;9.98;;;12.60;71.80;;;;;;5038247;28;20092;-38
2021/10/06 05:51:43;;;;;;;9.95;7.38;;;12.60;72.10;;;;;;5037936;28;20032;-36
2021/10/06 05:54:09;;;;;;;14.73;8.73;;;12.70;72.00;;;;;;5036928;28;20040;-35
2021/10/06 05:56:34;;;;;;;22.33;10.40;;;12.70;71.70;;;;;;5037657;28;20049;-36
2021/10/06 05:59:00;;;;;;;13.38;7.25;;;12.80;71.50;;;;;;5036918;28;20083;-37
2021/10/06 06:01:26;;;;;;;13.80;8.25;;;12.80;71.90;;;;;;5037715;28;20386;-38
2021/10/06 06:03:53;;;;;;;80.75;13.63;;;12.80;71.10;;;;;;5038053;28;20040;-39
2021/10/06 06:06:19;;;;;;;13.15;7.82;;;12.90;70.70;;;;;;5037898;28;20032;-39
2021/10/06 06:08:44;;;;;;;67.75;11.60;;;12.90;70.40;;;;;;5038313;28;20021;-39
2021/10/06 06:11:10;;;;;;;11.35;7.68;;;12.90;70.20;;;;;;5037417;28;20441;-38
2021/10/06 06:13:36;;;;;;;205.02;21.10;;;12.90;70.20;;;;;;5037853;28;20061;-39
2021/10/06 06:16:03;;;;;;;21.60;8.02;;;13.00;69.90;;;;;;5037133;28;20432;-39
2021/10/06 06:18:29;;;;;;;11.18;6.50;;;13.00;69.60;;;;;;5037983;28;20059;-40
2021/10/06 06:20:55;;;;;;;15.05;7.95;;;13.10;69.40;;;;;;5037283;28;20416;-38
2021/10/06 06:23:20;;;;;;;19.65;7.10;;;13.10;69.10;;;;;;5037724;28;20037;-38
2021/10/06 06:25:46;;;;;;;14.93;7.63;;;13.10;68.90;;;;;;5036785;28;20021;-38
2021/10/06 06:28:12;;;;;;;17.85;6.95;;;13.20;68.70;;;;;;5037462;28;20065;-35
2021/10/06 06:30:37;;;;;;;23.83;7.45;;;13.20;68.60;;;;;;5037450;28;20021;-38
2021/10/06 06:33:04;;;;;;;12.02;6.25;;;13.20;68.30;;;;;;5036996;28;20143;-38
2021/10/06 06:35:29;;;;;;;23.77;8.00;;;13.30;68.20;;;;;;5037274;28;20026;-35
2021/10/06 06:37:55;;;;;;;13.60;6.70;;;13.30;68.20;;;;;;5037250;28;20426;-39
2021/10/06 06:40:21;;;;;;;13.07;6.43;;;13.30;68.20;;;;;;5037287;28;20309;-38
2021/10/06 06:42:47;;;;;;;13.10;7.10;;;13.30;68.40;;;;;;5037370;28;20033;-38
2021/10/06 06:45:13;;;;;;;22.63;8.65;;;13.30;68.60;;;;;;5037225;28;20057;-38
2021/10/06 06:47:41;;;;;;;15.35;8.23;;;13.40;68.70;;;;;;5036946;28;20390;-36
2021/10/06 06:50:07;;;;;;;13.55;7.80;;;13.40;68.70;;;;;;5036138;28;20030;-39
2021/10/06 06:52:33;;;;;;;26.95;8.63;;;13.40;68.40;;;;;;5036645;28;20033;-35
2021/10/06 06:54:58;;;;;;;16.38;7.50;;;13.40;67.90;;;;;;5036771;28;20095;-35
2021/10/06 06:57:25;;;;;;;14.23;7.38;;;13.40;67.60;;;;;;5035881;28;20053;-38
2021/10/06 06:59:51;;;;;;;20.25;7.97;;;13.50;67.40;;;;;;5037039;28;20434;-36
2021/10/06 07:02:17;;;;;;;17.67;7.28;;;13.50;67.20;;;;;;5036889;28;20091;-39
2021/10/06 07:04:42;;;;;;;13.93;7.18;;;13.50;66.90;;;;;;5036686;28;20021;-36
2021/10/06 07:07:13;;;;;;;15.23;8.05;;;13.50;66.50;;;;;;5036935;28;20045;-36
2021/10/06 07:09:46;;;;;;;11.57;7.30;;;13.50;66.10;;;;;;5035490;28;20418;-36
2021/10/06 07:12:16;;;;;;;16.00;7.85;;;13.50;66.00;;;;;;5036800;28;20056;-36
2021/10/06 07:14:42;;;;;;;12.13;6.25;;;13.50;65.60;;;;;;5036912;28;20025;-36
2021/10/06 07:17:08;;;;;;;11.70;7.22;;;13.50;65.70;;;;;;5036655;28;20059;-36
2021/10/06 07:19:34;;;;;;;15.23;6.03;;;13.50;65.40;;;;;;5037007;28;20469;-35
2021/10/06 07:21:59;;;;;;;56.22;28.58;;;13.50;65.20;;;;;;5036012;28;20139;-38
2021/10/06 07:24:25;;;;;;;32.92;17.42;;;13.50;65.10;;;;;;5036279;28;20026;-39
2021/10/06 07:26:51;;;;;;;23.33;9.45;;;13.50;65.00;;;;;;5036339;28;20030;-39
2021/10/06 07:29:17;;;;;;;39.03;12.52;;;13.50;65.10;;;;;;5036617;28;20039;-39
2021/10/06 07:31:43;;;;;;;26.08;15.27;;;13.50;65.00;;;;;;5039893;28;20025;-36
2021/10/06 07:34:09;;;;;;;26.40;14.00;;;13.50;65.00;;;;;;5035324;28;20330;-38
2021/10/06 07:36:34;;;;;;;22.65;13.35;;;13.50;65.00;;;;;;5036134;28;20334;-39
2021/10/06 07:39:01;;;;;;;21.17;11.57;;;13.50;65.10;;;;;;5044784;28;20414;-39
2021/10/06 07:41:27;;;;;;;35.22;11.73;;;13.50;65.00;;;;;;5036302;28;20056;-38
2021/10/06 07:43:52;;;;;;;21.13;11.40;;;13.50;64.80;;;;;;5036561;28;20414;-38
2021/10/06 07:46:18;;;;;;;15.15;9.93;;;13.50;65.00;;;;;;5035964;28;20021;-35
2021/10/06 07:48:44;;;;;;;23.52;12.95;;;13.50;65.10;;;;;;5036180;28;20057;-39
2021/10/06 07:51:10;;;;;;;13.40;8.02;;;13.50;65.00;;;;;;5035477;28;20091;-35
2021/10/06 07:53:35;;;;;;;18.35;7.10;;;13.50;64.60;;;;;;5046042;28;20032;-35
2021/10/06 07:56:01;;;;;;;15.77;9.43;;;13.60;64.50;;;;;;5035650;28;20049;-35
2021/10/06 07:58:27;;;;;;;15.25;10.68;;;13.60;64.00;;;;;;5036369;28;20038;-39
2021/10/06 08:00:52;;;;;;;17.05;10.77;;;13.60;63.60;;;;;;5035453;28;20022;-39
2021/10/06 08:03:18;;;;;;;20.33;12.00;;;13.70;63.40;;;;;;5036049;28;20038;-36
2021/10/06 08:05:44;;;;;;;14.43;7.15;;;13.70;62.70;;;;;;5035492;28;20029;-38
2021/10/06 08:08:10;;;;;;;12.48;6.63;;;13.70;61.60;;;;;;5035792;28;20085;-35
2021/10/06 08:10:36;;;;;;;16.45;8.05;;;13.80;61.10;;;;;;5035878;28;20028;-38
2021/10/06 08:13:03;;;;;;;11.52;6.13;;;13.80;60.40;;;;;;5046221;28;20037;-38
2021/10/06 08:15:30;;;;;;;10.20;7.20;;;13.80;60.00;;;;;;5035602;28;20076;-39
2021/10/06 08:17:56;;;;;;;12.60;5.95;;;13.90;59.70;;;;;;5035091;28;20041;-38
2021/10/06 08:20:22;;;;;;;15.40;7.95;;;13.90;59.30;;;;;;5035329;28;20105;-38
2021/10/06 08:22:48;;;;;;;16.08;6.68;;;14.00;57.90;;;;;;5035358;28;20033;-35
2021/10/06 08:25:14;;;;;;;16.05;6.63;;;14.00;56.70;;;;;;5035389;28;20453;-38
2021/10/06 08:27:39;;;;;;;12.32;6.35;;;14.00;56.70;;;;;;5035291;28;20465;-37
2021/10/06 08:30:06;;;;;;;11.55;6.25;;;14.10;56.50;;;;;;5035101;28;20017;-37
2021/10/06 08:32:32;;;;;;;12.60;6.25;;;14.10;56.40;;;;;;5035030;28;20033;-35
2021/10/06 08:34:57;;;;;;;14.10;6.13;;;14.20;56.20;;;;;;5035396;28;20041;-39
2021/10/06 08:37:23;;;;;;;10.32;4.93;;;14.20;55.80;;;;;;5035327;28;20061;-35
2021/10/06 08:39:49;;;;;;;11.23;6.00;;;14.20;55.40;;;;;;5035290;28;20417;-36
2021/10/06 08:42:15;;;;;;;11.77;4.50;;;14.20;55.60;;;;;;5035177;28;20037;-37
2021/10/06 08:44:46;;;;;;;18.08;13.50;;;14.30;55.50;;;;;;5035197;28;20350;-38
2021/10/06 08:47:12;;;;;;;12.50;6.47;;;14.30;55.60;;;;;;5035346;28;20068;-39
2021/10/06 08:49:38;;;;;;;33.03;11.15;;;14.40;55.00;;;;;;5035153;28;20021;-38
2021/10/06 08:52:04;;;;;;;22.98;9.20;;;14.40;53.80;;;;;;5034860;28;20362;-38
2021/10/06 08:54:31;;;;;;;14.95;6.68;;;14.40;53.20;;;;;;5035166;28;20120;-38
2021/10/06 08:56:57;;;;;;;13.52;8.45;;;14.50;52.90;;;;;;5034470;28;20521;-38
2021/10/06 08:59:22;;;;;;;9.73;6.55;;;14.50;53.10;;;;;;5034978;28;20049;-38
2021/10/06 09:01:48;;;;;;;10.60;6.10;;;14.60;53.30;;;;;;5038096;28;20092;-36
2021/10/06 09:04:14;;;;;;;11.63;6.70;;;14.60;53.30;;;;;;5038595;28;20037;-35
2021/10/06 09:06:44;;;;;;;11.23;4.10;;;14.60;52.90;;;;;;5039090;28;20078;-38
2021/10/06 09:09:16;;;;;;;7.15;5.07;;;14.70;52.40;;;;;;5038930;28;20418;-39
2021/10/06 09:11:45;;;;;;;9.90;6.60;;;14.70;52.80;;;;;;5038863;28;20373;-35
2021/10/06 09:14:11;;;;;;;14.50;5.13;;;14.80;52.90;;;;;;5038727;28;20041;-38
2021/10/06 09:16:37;;;;;;;10.23;5.75;;;14.80;53.00;;;;;;5038577;28;20075;-35
2021/10/06 09:19:05;;;;;;;9.25;4.45;;;14.80;53.20;;;;;;5039122;28;20364;-35
2021/10/06 09:21:34;;;;;;;5.38;4.20;;;14.80;52.90;;;;;;5039053;28;20048;-36
2021/10/06 09:23:59;;;;;;;12.02;6.18;;;14.90;53.10;;;;;;5039010;28;20091;-38
2021/10/06 09:26:25;;;;;;;10.57;7.18;;;15.00;53.50;;;;;;5038787;28;20112;-37
2021/10/06 09:28:51;;;;;;;15.65;8.68;;;15.00;53.40;;;;;;5039286;28;20033;-38
2021/10/06 09:31:21;;;;;;;8.63;6.03;;;15.00;53.40;;;;;;5038478;28;20040;-38
2021/10/06 09:33:53;;;;;;;16.75;8.52;;;15.10;53.20;;;;;;5038426;28;20117;-35
2021/10/06 09:36:22;;;;;;;8.50;4.90;;;15.20;53.40;;;;;;5038435;28;20388;-38
2021/10/06 09:38:53;;;;;;;8.38;5.10;;;15.20;52.90;;;;;;5038942;28;20041;-35
2021/10/06 09:41:29;;;;;;;9.38;5.35;;;15.20;52.80;;;;;;5038051;28;20414;-38
2021/10/06 09:44:23;;;;;;;11.13;5.45;;;15.30;52.90;;;;;;5038731;28;20334;-38
2021/10/06 09:46:57;;;;;;;7.97;4.00;;;15.30;52.80;;;;;;5037918;28;20034;-35
2021/10/06 09:49:34;;;;;;;6.55;4.30;;;15.40;52.40;;;;;;5038119;28;20037;-35
2021/10/06 09:52:26;;;;;;;7.60;4.18;;;15.40;51.80;;;;;;5038100;28;20372;-35
2021/10/06 09:54:57;;;;;;;13.70;6.00;;;15.50;51.70;;;;;;5038038;28;20030;-38
2021/10/06 09:57:40;;;;;;;8.35;5.22;;;15.50;51.20;;;;;;5037882;28;20123;-35
2021/10/06 10:00:18;;;;;;;9.45;4.43;;;15.60;51.10;;;;;;5037795;28;20086;-35
2021/10/06 10:02:44;;;;;;;7.78;4.57;;;15.60;50.90;;;;;;5038099;28;20030;-35
2021/10/06 10:05:11;;;;;;;11.13;4.65;;;15.70;50.50;;;;;;5049516;28;20425;-34
2021/10/06 10:07:38;;;;;;;8.82;4.70;;;15.70;50.00;;;;;;5057408;28;20326;-35
2021/10/06 10:10:06;;;;;;;12.63;4.80;;;15.70;49.60;;;;;;5057578;28;20040;-36
2021/10/06 10:12:33;;;;;;;6.40;3.83;;;15.80;49.70;;;;;;5057364;28;20488;-40
2021/10/06 10:15:00;;;;;;;8.20;4.28;;;15.80;49.60;;;;;;5057125;28;20067;-38
2021/10/06 10:17:26;;;;;;;12.23;7.13;;;15.90;49.70;;;;;;5057510;28;20333;-39
2021/10/06 10:20:01;;;;;;;13.80;7.20;;;15.90;49.90;;;;;;5057315;28;20033;-35
2021/10/06 10:22:32;;;;;;;8.38;4.50;;;16.00;49.60;;;;;;5057482;28;20037;-35
2021/10/06 10:25:13;;;;;;;11.18;6.22;;;16.00;48.50;;;;;;5056811;28;20131;-38
2021/10/06 10:28:06;;;;;;;9.40;4.43;;;16.10;48.10;;;;;;5057291;28;20475;-35
2021/10/06 10:30:33;;;;;;;5.93;3.55;;;16.10;47.00;;;;;;5057042;28;20103;-36
2021/10/06 10:32:59;;;;;;;11.73;6.22;;;16.20;47.00;;;;;;5056770;28;20043;-39
2021/10/06 10:35:39;;;;;;;11.23;4.57;;;16.20;46.90;;;;;;5056814;28;20021;-39
2021/10/06 10:38:06;;;;;;;13.45;4.40;;;16.30;46.40;;;;;;5057217;28;20120;-35
2021/10/06 10:40:35;;;;;;;8.00;3.33;;;16.30;46.50;;;;;;5056672;28;20100;-38
2021/10/06 10:43:06;;;;;;;9.65;4.65;;;16.30;45.60;;;;;;5057056;28;20044;-38
2021/10/06 10:45:48;;;;;;;10.43;5.53;;;16.40;45.80;;;;;;5056398;28;20040;-39
2021/10/06 10:48:20;;;;;;;18.75;7.95;;;16.50;45.40;;;;;;5056843;28;20036;-35
2021/10/06 10:50:45;;;;;;;9.07;5.05;;;16.50;45.30;;;;;;5056967;28;20100;-35
2021/10/06 10:53:16;;;;;;;9.95;5.05;;;16.60;45.40;;;;;;5056707;28;20262;-35
2021/10/06 10:56:00;;;;;;;7.43;4.03;;;16.60;45.30;;;;;;5056354;28;20563;-35
2021/10/06 10:58:36;;;;;;;15.15;10.27;;;16.70;45.20;;;;;;5056864;28;20048;-35
2021/10/06 11:01:13;;;;;;;13.75;9.50;;;16.80;45.70;;;;;;5056301;28;20048;-35
2021/10/06 11:04:09;;;;;;;11.68;6.30;;;16.90;45.40;;;;;;5056461;28;20083;-35
2021/10/06 11:06:40;;;;;;;8.85;5.13;;;17.00;45.40;;;;;;5056612;28;20017;-40
2021/10/06 11:09:27;;;;;;;6.50;3.97;;;17.00;44.80;;;;;;5056566;28;20037;-39
2021/10/06 11:11:53;;;;;;;9.35;4.38;;;17.10;44.10;;;;;;5056241;28;20459;-40
2021/10/06 11:14:21;;;;;;;11.85;6.13;;;17.10;43.70;;;;;;5056442;28;20053;-36
2021/10/06 11:17:07;;;;;;;12.77;4.28;;;17.20;43.50;;;;;;5056316;28;20372;-40
2021/10/06 11:19:48;;;;;;;15.05;5.03;;;17.30;43.00;;;;;;5053459;28;20029;-35
2021/10/06 11:22:23;;;;;;;11.35;7.97;;;17.40;43.10;;;;;;5044829;28;20044;-36
2021/10/06 11:24:54;;;;;;;9.85;3.40;;;17.40;43.40;;;;;;5035758;28;20025;-39
2021/10/06 11:27:21;;;;;;;12.63;3.50;;;17.50;42.90;;;;;;5036124;28;20090;-35
2021/10/06 11:29:50;;;;;;;8.00;4.40;;;17.60;41.40;;;;;;5035598;28;20029;-36
2021/10/06 11:32:16;;;;;;;4.93;3.67;;;17.70;41.20;;;;;;5035861;28;20388;-35
2021/10/06 11:34:51;;;;;;;8.48;3.45;;;17.70;40.90;;;;;;5035774;28;20041;-39
2021/10/06 11:37:21;;;;;;;8.35;3.30;;;17.90;40.40;;;;;;5035779;28;20124;-36
2021/10/06 11:39:47;;;;;;;8.90;3.05;;;17.90;40.10;;;;;;5035621;28;20040;-40
2021/10/06 11:42:14;;;;;;;11.45;3.15;;;18.00;39.80;;;;;;5035724;28;20044;-39
2021/10/06 11:44:41;;;;;;;11.30;3.10;;;18.10;40.10;;;;;;5034455;28;20157;-35
2021/10/06 11:47:16;;;;;;;8.38;2.85;;;18.10;39.90;;;;;;5035890;28;20033;-36
2021/10/06 11:49:45;;;;;;;12.82;5.20;;;18.20;39.50;;;;;;5035464;28;20021;-37
2021/10/06 11:52:13;;;;;;;7.03;4.60;;;18.30;39.30;;;;;;5035617;28;20041;-39
2021/10/06 11:54:39;;;;;;;12.02;7.10;;;18.40;38.90;;;;;;5035829;28;20033;-35
2021/10/06 11:57:07;;;;;;;5.10;3.63;;;18.50;38.70;;;;;;5035447;28;20456;-36
2021/10/06 11:59:33;;;;;;;6.38;3.50;;;18.60;38.40;;;;;;5035709;28;20021;-37
2021/10/06 12:02:07;;;;;;;7.22;3.70;;;18.70;38.30;;;;;;5035358;28;20075;-38
2021/10/06 12:04:36;;;;;;;8.80;4.60;;;18.80;37.60;;;;;;5035102;28;20025;-40
2021/10/06 12:07:06;;;;;;;9.35;3.78;;;18.90;37.50;;;;;;5035465;28;20053;-35
2021/10/06 12:09:49;;;;;;;8.48;4.47;;;19.00;37.10;;;;;;5035126;28;20025;-35
2021/10/06 12:12:15;;;;;;;7.05;2.88;;;19.10;37.10;;;;;;5035346;28;20041;-39
2021/10/06 12:14:51;;;;;;;10.90;3.95;;;19.30;36.80;;;;;;5035229;28;20025;-36
2021/10/06 12:17:22;;;;;;;6.60;3.17;;;19.40;36.20;;;;;;5035225;28;20037;-36
2021/10/06 12:20:07;;;;;;;9.50;4.75;;;19.60;36.00;;;;;;5035048;28;20489;-40
2021/10/06 12:22:38;;;;;;;6.93;3.20;;;19.70;34.80;;;;;;5035413;28;20037;-39
2021/10/06 12:25:16;;;;;;;5.57;2.75;;;19.80;35.00;;;;;;5034816;28;20028;-39
2021/10/06 12:27:45;;;;;;;8.57;3.55;;;19.90;34.50;;;;;;5035206;28;20029;-36
2021/10/06 12:30:19;;;;;;;10.00;3.28;;;20.00;34.10;;;;;;5034999;28;20117;-35
2021/10/06 12:32:47;;;;;;;10.20;3.65;;;20.10;33.60;;;;;;5035405;28;20045;-36
2021/10/06 12:35:17;;;;;;;8.05;3.28;;;20.10;33.50;;;;;;5034823;28;20029;-35
2021/10/06 12:37:57;;;;;;;9.60;3.20;;;20.20;33.20;;;;;;5034947;28;20071;-39
2021/10/06 12:40:54;;;;;;;6.28;2.83;;;20.30;32.80;;;;;;5034578;28;20420;-39